Nestor — V2FB3 — position and weather

sailwx.info

Track history (hours):
 
Tides and Currents Weather Stations Pressure Air Temp Water Temp Dewpoint Dewpoint Depression Visibility Wind Speed Wind Dir Waves Ship Positions

Nestor

Last reported at 2015-Jul-31 19:13 UTC. Time now 2015-Aug-01 18:14 UTC.
Position N 50°16' W 001°57'.

Length 88 m; draft 4.6 m.

Type: Cargo ship. MMSI: 305620000.

Date/timePositionNaut miles runAvg speedWind from/ knotsBaromVisibWave heightAir tempDewpointWater temp
2015-Jul-31 19:13N 50°16' W 001°57'21 6.8
2015-Jul-31 16:04N 50°27' W 001°29'5 8.9
2015-Jul-31 15:34N 50°30' W 001°23'10 9.9
2015-Jul-31 14:33N 50°34' W 001°09'9 8.7
2015-Jul-31 13:33N 50°42' W 001°03'8 8.2
2015-Jul-31 12:33N 50°47' W 001°13'10 9.0
2015-Jul-31 11:29N 50°53' W 001°24'1 0.1
2015-Jul-31 02:25N 50°54' W 001°26'0 0.0
2015-Jul-31 01:31N 50°54' W 001°26'0 0.0
2015-Jul-31 00:31N 50°54' W 001°26'0 0.0
2015-Jul-30 20:04N 50°54' W 001°26'0 0.0
2015-Jul-30 07:16N 50°54' W 001°26'0 0.0
2015-Jul-30 06:28N 50°54' W 001°26'0 0.0
2015-Jul-29 23:31N 50°54' W 001°26'0 0.0
2015-Jul-29 22:19N 50°54' W 001°26'0 0.0
2015-Jul-29 20:28N 50°54' W 001°26'0 0.0
2015-Jul-29 19:28N 50°54' W 001°26'0 0.0
2015-Jul-29 18:28N 50°54' W 001°26'0 0.0
2015-Jul-29 09:33N 50°54' W 001°26'8 7.6
2015-Jul-29 08:33N 50°49' W 001°17'7 7.3
2015-Jul-29 07:34N 50°45' W 001°07'9 9.3
2015-Jul-29 06:33N 50°41' W 000°54'9 8.8
2015-Jul-29 05:33N 50°38' W 000°41'36 8.9
2015-Jul-29 01:31N 50°36' E 000°16'1010.4
2015-Jul-29 00:33N 50°38' E 000°31'10 9.6
2015-Jul-28 23:33N 50°43' E 000°44'9 8.6
2015-Jul-28 22:29N 50°49' E 000°56'14 7.3
2015-Jul-28 20:31N 50°58' E 001°13'6 6.3
2015-Jul-28 19:34N 51°01' E 001°21'5 5.3
2015-Jul-28 18:33N 51°05' E 001°28'6 6.0
2015-Jul-28 17:34N 51°09' E 001°35'8 8.4
2015-Jul-28 16:34N 51°14' E 001°46'9 9.2
2015-Jul-28 15:34N 51°22' E 001°54'9 9.1
2015-Jul-28 14:33N 51°29' E 002°02'9 8.5
2015-Jul-28 13:33N 51°35' E 002°12'8 7.5
2015-Jul-28 12:33N 51°41' E 002°20'53 6.2
2015-Jul-28 04:05N 52°04' E 003°36'4 6.5
2015-Jul-28 03:33N 52°04' E 003°42'7 6.7
2015-Jul-28 02:33N 52°03' E 003°53'8 7.8
2015-Jul-28 01:34N 51°59' E 004°04'1110.6
2015-Jul-28 00:33N 51°54' E 004°18'7 7.3
2015-Jul-27 23:34N 51°50' E 004°28'8 7.7
2015-Jul-27 22:33N 51°45' E 004°38'4 0.3
2015-Jul-27 11:07N 51°42' E 004°36'0 0.0
2015-Jul-27 10:25N 51°42' E 004°36'0 0.0
2015-Jul-27 09:22N 51°42' E 004°36'0 0.0
2015-Jul-27 07:16N 51°42' E 004°36'0 0.0
2015-Jul-27 04:04N 51°42' E 004°36'0 0.0
2015-Jul-27 03:16N 51°42' E 004°36'0 0.0
2015-Jul-27 02:34N 51°42' E 004°36'6 5.8
2015-Jul-27 01:33N 51°47' E 004°38'8 7.6
2015-Jul-27 00:34N 51°50' E 004°26'17 8.4
2015-Jul-26 22:34N 51°59' E 004°03'9 8.9
2015-Jul-26 21:33N 51°60' E 003°49'10 9.5
2015-Jul-26 20:33N 51°57' E 003°34'54 8.3
2015-Jul-26 14:04N 51°31' E 002°18'4 8.6
2015-Jul-26 13:33N 51°28' E 002°13'9 8.9
2015-Jul-26 12:33N 51°20' E 002°07'9 9.0
2015-Jul-26 11:33N 51°12' E 001°60'10 9.4
2015-Jul-26 10:32N 51°06' E 001°47'10 9.8
2015-Jul-26 09:34N 50°60' E 001°37'  
Track history (hours):
 
Tides and Currents Weather Stations Pressure Air Temp Water Temp Dewpoint Dewpoint Depression Visibility Wind Speed Wind Dir Waves Ship Positions

Nestor

Last reported at 2015-Jul-31 19:13 UTC. Time now 2015-Aug-01 18:14 UTC.
Position N 50°16' W 001°57'.

Length 88 m; draft 4.6 m.

Type: Cargo ship. MMSI: 305620000.

Date/timePositionNaut miles runAvg speedWind from/ knotsBaromVisibWave heightAir tempDewpointWater temp
2015-Jul-31 19:13N 50°16' W 001°57'21 6.8
2015-Jul-31 16:04N 50°27' W 001°29'5 8.9
2015-Jul-31 15:34N 50°30' W 001°23'10 9.9
2015-Jul-31 14:33N 50°34' W 001°09'9 8.7
2015-Jul-31 13:33N 50°42' W 001°03'8 8.2
2015-Jul-31 12:33N 50°47' W 001°13'10 9.0
2015-Jul-31 11:29N 50°53' W 001°24'1 0.1
2015-Jul-31 02:25N 50°54' W 001°26'0 0.0
2015-Jul-31 01:31N 50°54' W 001°26'0 0.0
2015-Jul-31 00:31N 50°54' W 001°26'0 0.0
2015-Jul-30 20:04N 50°54' W 001°26'0 0.0
2015-Jul-30 07:16N 50°54' W 001°26'0 0.0
2015-Jul-30 06:28N 50°54' W 001°26'0 0.0
2015-Jul-29 23:31N 50°54' W 001°26'0 0.0
2015-Jul-29 22:19N 50°54' W 001°26'0 0.0
2015-Jul-29 20:28N 50°54' W 001°26'0 0.0
2015-Jul-29 19:28N 50°54' W 001°26'0 0.0
2015-Jul-29 18:28N 50°54' W 001°26'0 0.0
2015-Jul-29 09:33N 50°54' W 001°26'8 7.6
2015-Jul-29 08:33N 50°49' W 001°17'7 7.3
2015-Jul-29 07:34N 50°45' W 001°07'9 9.3
2015-Jul-29 06:33N 50°41' W 000°54'9 8.8
2015-Jul-29 05:33N 50°38' W 000°41'36 8.9
2015-Jul-29 01:31N 50°36' E 000°16'1010.4
2015-Jul-29 00:33N 50°38' E 000°31'10 9.6
2015-Jul-28 23:33N 50°43' E 000°44'9 8.6
2015-Jul-28 22:29N 50°49' E 000°56'14 7.3
2015-Jul-28 20:31N 50°58' E 001°13'6 6.3
2015-Jul-28 19:34N 51°01' E 001°21'5 5.3
2015-Jul-28 18:33N 51°05' E 001°28'6 6.0
2015-Jul-28 17:34N 51°09' E 001°35'8 8.4
2015-Jul-28 16:34N 51°14' E 001°46'9 9.2
2015-Jul-28 15:34N 51°22' E 001°54'9 9.1
2015-Jul-28 14:33N 51°29' E 002°02'9 8.5
2015-Jul-28 13:33N 51°35' E 002°12'8 7.5
2015-Jul-28 12:33N 51°41' E 002°20'53 6.2
2015-Jul-28 04:05N 52°04' E 003°36'4 6.5
2015-Jul-28 03:33N 52°04' E 003°42'7 6.7
2015-Jul-28 02:33N 52°03' E 003°53'8 7.8
2015-Jul-28 01:34N 51°59' E 004°04'1110.6
2015-Jul-28 00:33N 51°54' E 004°18'7 7.3
2015-Jul-27 23:34N 51°50' E 004°28'8 7.7
2015-Jul-27 22:33N 51°45' E 004°38'4 0.3
2015-Jul-27 11:07N 51°42' E 004°36'0 0.0
2015-Jul-27 10:25N 51°42' E 004°36'0 0.0
2015-Jul-27 09:22N 51°42' E 004°36'0 0.0
2015-Jul-27 07:16N 51°42' E 004°36'0 0.0
2015-Jul-27 04:04N 51°42' E 004°36'0 0.0
2015-Jul-27 03:16N 51°42' E 004°36'0 0.0
2015-Jul-27 02:34N 51°42' E 004°36'6 5.8
2015-Jul-27 01:33N 51°47' E 004°38'8 7.6
2015-Jul-27 00:34N 51°50' E 004°26'17 8.4
2015-Jul-26 22:34N 51°59' E 004°03'9 8.9
2015-Jul-26 21:33N 51°60' E 003°49'10 9.5
2015-Jul-26 20:33N 51°57' E 003°34'54 8.3
2015-Jul-26 14:04N 51°31' E 002°18'4 8.6
2015-Jul-26 13:33N 51°28' E 002°13'9 8.9
2015-Jul-26 12:33N 51°20' E 002°07'9 9.0
2015-Jul-26 11:33N 51°12' E 001°60'10 9.4
2015-Jul-26 10:32N 51°06' E 001°47'10 9.8
2015-Jul-26 09:34N 50°60' E 001°37'  

Dump ship's entire track history